sensor_id;sensor_type;location;lat;lon;timestamp;P1;durP1;ratioP1;P2;durP2;ratioP2
44925;SDS011;30662;51.210;7.656;2023-04-01T00:00:54;4.72;;;1.30;;
44925;SDS011;30662;51.210;7.656;2023-04-01T00:03:21;6.20;;;1.20;;
44925;SDS011;30662;51.210;7.656;2023-04-01T00:05:48;5.43;;;1.45;;
44925;SDS011;30662;51.210;7.656;2023-04-01T00:08:15;3.38;;;0.85;;
44925;SDS011;30662;51.210;7.656;2023-04-01T00:10:41;2.08;;;0.70;;
44925;SDS011;30662;51.210;7.656;2023-04-01T00:13:07;3.00;;;1.00;;
44925;SDS011;30662;51.210;7.656;2023-04-01T00:15:33;3.40;;;0.90;;
44925;SDS011;30662;51.210;7.656;2023-04-01T00:17:59;2.30;;;1.25;;
44925;SDS011;30662;51.210;7.656;2023-04-01T00:20:26;3.53;;;1.38;;
44925;SDS011;30662;51.210;7.656;2023-04-01T00:22:53;4.72;;;1.13;;
44925;SDS011;30662;51.210;7.656;2023-04-01T00:25:18;3.60;;;1.10;;
44925;SDS011;30662;51.210;7.656;2023-04-01T00:27:44;2.03;;;0.60;;
44925;SDS011;30662;51.210;7.656;2023-04-01T00:30:10;2.75;;;0.82;;
44925;SDS011;30662;51.210;7.656;2023-04-01T00:32:37;7.28;;;1.30;;
44925;SDS011;30662;51.210;7.656;2023-04-01T00:35:03;1.98;;;1.25;;
44925;SDS011;30662;51.210;7.656;2023-04-01T00:37:29;4.40;;;0.90;;
44925;SDS011;30662;51.210;7.656;2023-04-01T00:39:55;2.55;;;1.00;;
44925;SDS011;30662;51.210;7.656;2023-04-01T00:42:22;1.67;;;0.73;;
44925;SDS011;30662;51.210;7.656;2023-04-01T00:44:52;4.18;;;1.30;;
44925;SDS011;30662;51.210;7.656;2023-04-01T00:47:19;1.45;;;0.85;;
44925;SDS011;30662;51.210;7.656;2023-04-01T00:49:48;3.47;;;0.80;;
44925;SDS011;30662;51.210;7.656;2023-04-01T00:52:17;2.28;;;0.80;;
44925;SDS011;30662;51.210;7.656;2023-04-01T00:54:46;1.23;;;0.65;;
44925;SDS011;30662;51.210;7.656;2023-04-01T00:57:19;3.40;;;0.80;;
44925;SDS011;30662;51.210;7.656;2023-04-01T00:59:49;1.38;;;0.60;;
44925;SDS011;30662;51.210;7.656;2023-04-01T01:02:18;2.38;;;1.23;;
44925;SDS011;30662;51.210;7.656;2023-04-01T01:04:45;1.67;;;0.85;;
44925;SDS011;30662;51.210;7.656;2023-04-01T01:13:11;3.55;;;0.77;;
44925;SDS011;30662;51.210;7.656;2023-04-01T01:15:44;1.33;;;0.80;;
44925;SDS011;30662;51.210;7.656;2023-04-01T01:20:57;3.85;;;1.00;;
44925;SDS011;30662;51.210;7.656;2023-04-01T01:26:52;1.05;;;0.68;;
44925;SDS011;30662;51.210;7.656;2023-04-01T01:29:35;1.48;;;0.68;;
44925;SDS011;30662;51.210;7.656;2023-04-01T01:34:49;4.15;;;1.27;;
44925;SDS011;30662;51.210;7.656;2023-04-01T01:37:23;2.53;;;0.73;;
44925;SDS011;30662;51.210;7.656;2023-04-01T01:39:54;2.45;;;0.98;;
44925;SDS011;30662;51.210;7.656;2023-04-01T01:42:24;2.38;;;0.77;;
44925;SDS011;30662;51.210;7.656;2023-04-01T01:44:54;2.58;;;0.60;;
44925;SDS011;30662;51.210;7.656;2023-04-01T01:47:22;1.27;;;0.70;;
44925;SDS011;30662;51.210;7.656;2023-04-01T01:49:51;1.25;;;0.75;;
44925;SDS011;30662;51.210;7.656;2023-04-01T01:52:18;1.85;;;0.90;;
44925;SDS011;30662;51.210;7.656;2023-04-01T01:54:51;2.80;;;0.63;;
44925;SDS011;30662;51.210;7.656;2023-04-01T01:57:21;4.23;;;0.70;;
44925;SDS011;30662;51.210;7.656;2023-04-01T01:59:50;2.20;;;0.90;;
44925;SDS011;30662;51.210;7.656;2023-04-01T02:02:21;2.85;;;0.88;;
44925;SDS011;30662;51.210;7.656;2023-04-01T02:04:49;2.75;;;1.35;;
44925;SDS011;30662;51.210;7.656;2023-04-01T02:07:30;3.67;;;0.77;;
44925;SDS011;30662;51.210;7.656;2023-04-01T02:10:02;0.95;;;0.57;;
44925;SDS011;30662;51.210;7.656;2023-04-01T02:12:29;2.88;;;0.93;;
44925;SDS011;30662;51.210;7.656;2023-04-01T02:15:06;1.38;;;0.60;;
44925;SDS011;30662;51.210;7.656;2023-04-01T02:17:35;0.63;;;0.47;;
44925;SDS011;30662;51.210;7.656;2023-04-01T02:20:06;3.13;;;0.57;;
44925;SDS011;30662;51.210;7.656;2023-04-01T02:22:38;1.45;;;0.93;;
44925;SDS011;30662;51.210;7.656;2023-04-01T02:25:08;2.90;;;1.05;;
44925;SDS011;30662;51.210;7.656;2023-04-01T02:27:38;2.55;;;0.50;;
44925;SDS011;30662;51.210;7.656;2023-04-01T02:30:05;0.45;;;0.40;;
44925;SDS011;30662;51.210;7.656;2023-04-01T02:32:33;1.13;;;0.40;;
44925;SDS011;30662;51.210;7.656;2023-04-01T02:35:00;1.15;;;0.50;;
44925;SDS011;30662;51.210;7.656;2023-04-01T02:37:31;1.20;;;0.50;;
44925;SDS011;30662;51.210;7.656;2023-04-01T02:40:02;1.67;;;0.50;;
44925;SDS011;30662;51.210;7.656;2023-04-01T02:42:32;3.38;;;0.75;;
44925;SDS011;30662;51.210;7.656;2023-04-01T02:44:58;1.10;;;0.60;;
44925;SDS011;30662;51.210;7.656;2023-04-01T02:47:24;0.82;;;0.47;;
44925;SDS011;30662;51.210;7.656;2023-04-01T02:49:49;2.05;;;0.50;;
44925;SDS011;30662;51.210;7.656;2023-04-01T02:52:15;1.10;;;0.70;;
44925;SDS011;30662;51.210;7.656;2023-04-01T02:54:41;1.20;;;0.55;;
44925;SDS011;30662;51.210;7.656;2023-04-01T02:57:07;1.50;;;0.55;;
44925;SDS011;30662;51.210;7.656;2023-04-01T02:59:33;0.52;;;0.40;;
44925;SDS011;30662;51.210;7.656;2023-04-01T03:01:59;0.60;;;0.60;;
44925;SDS011;30662;51.210;7.656;2023-04-01T03:04:25;0.82;;;0.40;;
44925;SDS011;30662;51.210;7.656;2023-04-01T03:06:51;1.52;;;0.60;;
44925;SDS011;30662;51.210;7.656;2023-04-01T03:09:17;0.65;;;0.50;;
44925;SDS011;30662;51.210;7.656;2023-04-01T03:11:43;1.52;;;0.60;;
44925;SDS011;30662;51.210;7.656;2023-04-01T03:14:09;0.88;;;0.32;;
44925;SDS011;30662;51.210;7.656;2023-04-01T03:16:34;0.57;;;0.55;;
44925;SDS011;30662;51.210;7.656;2023-04-01T03:19:00;0.75;;;0.30;;
44925;SDS011;30662;51.210;7.656;2023-04-01T03:21:27;1.40;;;0.40;;
44925;SDS011;30662;51.210;7.656;2023-04-01T03:23:53;0.50;;;0.40;;
44925;SDS011;30662;51.210;7.656;2023-04-01T03:26:19;0.68;;;0.40;;
44925;SDS011;30662;51.210;7.656;2023-04-01T03:28:45;1.55;;;0.40;;
44925;SDS011;30662;51.210;7.656;2023-04-01T03:31:11;1.88;;;0.60;;
44925;SDS011;30662;51.210;7.656;2023-04-01T03:33:37;1.40;;;0.47;;
44925;SDS011;30662;51.210;7.656;2023-04-01T03:36:03;0.77;;;0.47;;
44925;SDS011;30662;51.210;7.656;2023-04-01T03:38:34;2.47;;;0.40;;
44925;SDS011;30662;51.210;7.656;2023-04-01T03:41:01;1.33;;;0.40;;
44925;SDS011;30662;51.210;7.656;2023-04-01T03:43:27;1.15;;;0.57;;
44925;SDS011;30662;51.210;7.656;2023-04-01T03:45:53;0.80;;;0.40;;
44925;SDS011;30662;51.210;7.656;2023-04-01T03:48:20;1.23;;;0.55;;
44925;SDS011;30662;51.210;7.656;2023-04-01T03:50:46;2.20;;;0.75;;
44925;SDS011;30662;51.210;7.656;2023-04-01T03:53:12;1.13;;;0.52;;
44925;SDS011;30662;51.210;7.656;2023-04-01T03:55:38;1.02;;;0.43;;
44925;SDS011;30662;51.210;7.656;2023-04-01T03:58:05;0.57;;;0.43;;
44925;SDS011;30662;51.210;7.656;2023-04-01T04:00:32;0.50;;;0.40;;
44925;SDS011;30662;51.210;7.656;2023-04-01T04:02:58;0.70;;;0.40;;
44925;SDS011;30662;51.210;7.656;2023-04-01T04:05:25;0.93;;;0.45;;
44925;SDS011;30662;51.210;7.656;2023-04-01T04:07:51;0.40;;;0.40;;
44925;SDS011;30662;51.210;7.656;2023-04-01T04:10:18;2.05;;;1.85;;
44925;SDS011;30662;51.210;7.656;2023-04-01T04:12:45;0.70;;;0.50;;
44925;SDS011;30662;51.210;7.656;2023-04-01T04:15:11;1.17;;;0.55;;
44925;SDS011;30662;51.210;7.656;2023-04-01T04:17:37;1.33;;;0.52;;
44925;SDS011;30662;51.210;7.656;2023-04-01T04:20:03;1.13;;;0.63;;
44925;SDS011;30662;51.210;7.656;2023-04-01T04:22:30;1.27;;;0.32;;
44925;SDS011;30662;51.210;7.656;2023-04-01T04:24:56;0.85;;;0.47;;
44925;SDS011;30662;51.210;7.656;2023-04-01T04:27:21;0.93;;;0.60;;
44925;SDS011;30662;51.210;7.656;2023-04-01T04:29:47;2.60;;;0.47;;
44925;SDS011;30662;51.210;7.656;2023-04-01T04:32:13;0.70;;;0.40;;
44925;SDS011;30662;51.210;7.656;2023-04-01T04:34:39;0.52;;;0.50;;
44925;SDS011;30662;51.210;7.656;2023-04-01T04:37:05;2.13;;;0.60;;
44925;SDS011;30662;51.210;7.656;2023-04-01T04:39:31;0.55;;;0.40;;
44925;SDS011;30662;51.210;7.656;2023-04-01T04:41:57;0.90;;;0.70;;
44925;SDS011;30662;51.210;7.656;2023-04-01T04:44:23;0.60;;;0.57;;
44925;SDS011;30662;51.210;7.656;2023-04-01T04:46:48;0.85;;;0.60;;
44925;SDS011;30662;51.210;7.656;2023-04-01T04:49:15;1.50;;;1.05;;
44925;SDS011;30662;51.210;7.656;2023-04-01T04:51:41;0.50;;;0.50;;
44925;SDS011;30662;51.210;7.656;2023-04-01T04:54:07;0.95;;;0.40;;
44925;SDS011;30662;51.210;7.656;2023-04-01T04:56:33;1.70;;;0.88;;
44925;SDS011;30662;51.210;7.656;2023-04-01T04:58:59;3.05;;;0.73;;
44925;SDS011;30662;51.210;7.656;2023-04-01T05:01:25;1.65;;;1.27;;
44925;SDS011;30662;51.210;7.656;2023-04-01T05:03:51;3.00;;;1.05;;
44925;SDS011;30662;51.210;7.656;2023-04-01T05:06:17;0.73;;;0.57;;
44925;SDS011;30662;51.210;7.656;2023-04-01T05:08:45;1.05;;;0.60;;
44925;SDS011;30662;51.210;7.656;2023-04-01T05:11:16;0.88;;;0.50;;
44925;SDS011;30662;51.210;7.656;2023-04-01T05:13:43;0.60;;;0.60;;
44925;SDS011;30662;51.210;7.656;2023-04-01T05:16:13;3.15;;;2.85;;
44925;SDS011;30662;51.210;7.656;2023-04-01T05:18:42;1.33;;;1.20;;
44925;SDS011;30662;51.210;7.656;2023-04-01T05:21:09;1.13;;;0.90;;
44925;SDS011;30662;51.210;7.656;2023-04-01T05:23:39;1.50;;;0.90;;
44925;SDS011;30662;51.210;7.656;2023-04-01T05:26:06;1.73;;;1.05;;
44925;SDS011;30662;51.210;7.656;2023-04-01T05:28:33;0.90;;;0.90;;
44925;SDS011;30662;51.210;7.656;2023-04-01T05:30:59;1.65;;;1.10;;
44925;SDS011;30662;51.210;7.656;2023-04-01T05:33:27;1.40;;;1.30;;
44925;SDS011;30662;51.210;7.656;2023-04-01T05:35:53;1.10;;;1.08;;
44925;SDS011;30662;51.210;7.656;2023-04-01T05:38:20;1.02;;;0.80;;
44925;SDS011;30662;51.210;7.656;2023-04-01T05:40:46;0.90;;;0.90;;
44925;SDS011;30662;51.210;7.656;2023-04-01T05:43:12;0.80;;;0.80;;
44925;SDS011;30662;51.210;7.656;2023-04-01T05:45:38;0.90;;;0.90;;
44925;SDS011;30662;51.210;7.656;2023-04-01T05:48:04;1.13;;;0.82;;
44925;SDS011;30662;51.210;7.656;2023-04-01T05:50:31;0.93;;;0.93;;
44925;SDS011;30662;51.210;7.656;2023-04-01T05:52:57;1.27;;;0.90;;
44925;SDS011;30662;51.210;7.656;2023-04-01T05:55:22;1.17;;;1.17;;
44925;SDS011;30662;51.210;7.656;2023-04-01T05:57:48;1.10;;;1.00;;
44925;SDS011;30662;51.210;7.656;2023-04-01T06:00:15;1.63;;;1.50;;
44925;SDS011;30662;51.210;7.656;2023-04-01T06:02:42;1.52;;;1.42;;
44925;SDS011;30662;51.210;7.656;2023-04-01T06:05:17;2.67;;;1.98;;
44925;SDS011;30662;51.210;7.656;2023-04-01T06:07:45;3.28;;;2.22;;
44925;SDS011;30662;51.210;7.656;2023-04-01T06:10:18;3.75;;;1.80;;
44925;SDS011;30662;51.210;7.656;2023-04-01T06:15:13;1.15;;;1.10;;
44925;SDS011;30662;51.210;7.656;2023-04-01T06:17:55;1.40;;;1.30;;
44925;SDS011;30662;51.210;7.656;2023-04-01T06:25:59;1.48;;;1.38;;
44925;SDS011;30662;51.210;7.656;2023-04-01T06:31:23;1.67;;;1.58;;
44925;SDS011;30662;51.210;7.656;2023-04-01T06:36:39;1.80;;;1.70;;
44925;SDS011;30662;51.210;7.656;2023-04-01T06:44:45;1.50;;;1.40;;
44925;SDS011;30662;51.210;7.656;2023-04-01T06:55:48;2.42;;;0.95;;
44925;SDS011;30662;51.210;7.656;2023-04-01T06:58:20;1.27;;;1.17;;
44925;SDS011;30662;51.210;7.656;2023-04-01T07:00:49;1.02;;;0.93;;
44925;SDS011;30662;51.210;7.656;2023-04-01T07:05:51;0.85;;;0.82;;
44925;SDS011;30662;51.210;7.656;2023-04-01T07:08:23;1.90;;;1.77;;
44925;SDS011;30662;51.210;7.656;2023-04-01T07:10:58;0.95;;;0.93;;
44925;SDS011;30662;51.210;7.656;2023-04-01T07:16:24;0.77;;;0.77;;
44925;SDS011;30662;51.210;7.656;2023-04-01T07:19:00;0.73;;;0.73;;
44925;SDS011;30662;51.210;7.656;2023-04-01T07:21:34;0.70;;;0.70;;
44925;SDS011;30662;51.210;7.656;2023-04-01T07:24:09;2.80;;;2.40;;
44925;SDS011;30662;51.210;7.656;2023-04-01T07:26:41;0.55;;;0.55;;
44925;SDS011;30662;51.210;7.656;2023-04-01T07:29:11;3.50;;;0.80;;
44925;SDS011;30662;51.210;7.656;2023-04-01T07:31:55;0.70;;;0.70;;
44925;SDS011;30662;51.210;7.656;2023-04-01T07:34:53;1.10;;;1.00;;
44925;SDS011;30662;51.210;7.656;2023-04-01T07:40:37;1.40;;;1.30;;
44925;SDS011;30662;51.210;7.656;2023-04-01T07:43:41;2.03;;;1.83;;
44925;SDS011;30662;51.210;7.656;2023-04-01T07:52:00;1.20;;;1.10;;
44925;SDS011;30662;51.210;7.656;2023-04-01T07:54:34;1.10;;;1.10;;
44925;SDS011;30662;51.210;7.656;2023-04-01T08:02:40;0.80;;;0.80;;
44925;SDS011;30662;51.210;7.656;2023-04-01T08:11:21;0.80;;;0.80;;
44925;SDS011;30662;51.210;7.656;2023-04-01T08:13:48;3.15;;;1.70;;
44925;SDS011;30662;51.210;7.656;2023-04-01T08:16:52;1.48;;;1.38;;
44925;SDS011;30662;51.210;7.656;2023-04-01T08:22:14;0.90;;;0.90;;
44925;SDS011;30662;51.210;7.656;2023-04-01T08:27:22;1.38;;;0.70;;
44925;SDS011;30662;51.210;7.656;2023-04-01T08:29:59;0.75;;;0.70;;
44925;SDS011;30662;51.210;7.656;2023-04-01T08:35:11;1.05;;;0.47;;
44925;SDS011;30662;51.210;7.656;2023-04-01T08:37:40;2.17;;;1.98;;
44925;SDS011;30662;51.210;7.656;2023-04-01T08:40:25;0.75;;;0.75;;
44925;SDS011;30662;51.210;7.656;2023-04-01T08:43:07;2.20;;;0.80;;
44925;SDS011;30662;51.210;7.656;2023-04-01T08:51:17;0.73;;;0.73;;
44925;SDS011;30662;51.210;7.656;2023-04-01T08:57:01;0.90;;;0.90;;
44925;SDS011;30662;51.210;7.656;2023-04-01T09:08:11;2.42;;;1.00;;
44925;SDS011;30662;51.210;7.656;2023-04-01T09:11:12;1.08;;;1.08;;
44925;SDS011;30662;51.210;7.656;2023-04-01T09:19:16;7.95;;;5.38;;
44925;SDS011;30662;51.210;7.656;2023-04-01T09:24:35;1.33;;;1.13;;
44925;SDS011;30662;51.210;7.656;2023-04-01T09:29:51;0.90;;;0.90;;
44925;SDS011;30662;51.210;7.656;2023-04-01T09:35:45;1.00;;;0.90;;
44925;SDS011;30662;51.210;7.656;2023-04-01T09:41:29;0.70;;;0.70;;
44925;SDS011;30662;51.210;7.656;2023-04-01T09:44:03;0.60;;;0.60;;
44925;SDS011;30662;51.210;7.656;2023-04-01T10:32:49;1.33;;;1.23;;
44925;SDS011;30662;51.210;7.656;2023-04-01T10:52:22;0.82;;;0.82;;
44925;SDS011;30662;51.210;7.656;2023-04-01T10:58:30;2.13;;;1.30;;
44925;SDS011;30662;51.210;7.656;2023-04-01T11:31:54;3.30;;;3.00;;
44925;SDS011;30662;51.210;7.656;2023-04-01T11:45:39;3.17;;;2.60;;
44925;SDS011;30662;51.210;7.656;2023-04-01T11:57:09;2.28;;;1.60;;
44925;SDS011;30662;51.210;7.656;2023-04-01T12:05:54;1.02;;;1.02;;
44925;SDS011;30662;51.210;7.656;2023-04-01T12:08:31;3.42;;;1.48;;
44925;SDS011;30662;51.210;7.656;2023-04-01T12:13:53;1.50;;;0.88;;
44925;SDS011;30662;51.210;7.656;2023-04-01T12:35:47;1.20;;;1.10;;
44925;SDS011;30662;51.210;7.656;2023-04-01T12:52:10;1.20;;;1.10;;
44925;SDS011;30662;51.210;7.656;2023-04-01T13:06:07;1.80;;;1.70;;
44925;SDS011;30662;51.210;7.656;2023-04-01T13:08:55;3.45;;;1.85;;
44925;SDS011;30662;51.210;7.656;2023-04-01T13:25:26;5.00;;;4.60;;
44925;SDS011;30662;51.210;7.656;2023-04-01T13:34:13;5.93;;;5.43;;
44925;SDS011;30662;51.210;7.656;2023-04-01T13:39:38;5.93;;;5.43;;
44925;SDS011;30662;51.210;7.656;2023-04-01T13:42:11;6.25;;;5.75;;
44925;SDS011;30662;51.210;7.656;2023-04-01T13:44:45;6.32;;;5.82;;
44925;SDS011;30662;51.210;7.656;2023-04-01T14:05:31;5.13;;;4.72;;
44925;SDS011;30662;51.210;7.656;2023-04-01T14:08:14;5.13;;;4.72;;
44925;SDS011;30662;51.210;7.656;2023-04-01T14:10:58;5.50;;;5.00;;
44925;SDS011;30662;51.210;7.656;2023-04-01T14:27:51;4.72;;;3.60;;
44925;SDS011;30662;51.210;7.656;2023-04-01T14:36:27;4.50;;;4.10;;
44925;SDS011;30662;51.210;7.656;2023-04-01T14:39:20;4.13;;;3.72;;
44925;SDS011;30662;51.210;7.656;2023-04-01T14:42:05;3.83;;;3.53;;
44925;SDS011;30662;51.210;7.656;2023-04-01T14:47:51;3.10;;;2.90;;
44925;SDS011;30662;51.210;7.656;2023-04-01T14:50:22;3.13;;;2.88;;
44925;SDS011;30662;51.210;7.656;2023-04-01T14:52:59;2.97;;;2.78;;
44925;SDS011;30662;51.210;7.656;2023-04-01T14:58:10;3.08;;;2.72;;
44925;SDS011;30662;51.210;7.656;2023-04-01T15:01:25;5.97;;;4.00;;
44925;SDS011;30662;51.210;7.656;2023-04-01T15:03:38;10.13;;;5.35;;
44925;SDS011;30662;51.210;7.656;2023-04-01T15:14:34;6.78;;;3.60;;
44925;SDS011;30662;51.210;7.656;2023-04-01T15:17:27;3.92;;;3.63;;
44925;SDS011;30662;51.210;7.656;2023-04-01T15:32:01;3.03;;;2.83;;
44925;SDS011;30662;51.210;7.656;2023-04-01T15:34:41;2.80;;;2.60;;
44925;SDS011;30662;51.210;7.656;2023-04-01T15:37:18;3.35;;;3.05;;
44925;SDS011;30662;51.210;7.656;2023-04-01T15:45:33;4.18;;;3.88;;
44925;SDS011;30662;51.210;7.656;2023-04-01T15:48:06;2.88;;;2.67;;
44925;SDS011;30662;51.210;7.656;2023-04-01T15:54:03;2.78;;;2.58;;
44925;SDS011;30662;51.210;7.656;2023-04-01T16:10:27;4.40;;;4.10;;
44925;SDS011;30662;51.210;7.656;2023-04-01T16:13:01;4.88;;;4.47;;
44925;SDS011;30662;51.210;7.656;2023-04-01T16:29:30;4.95;;;4.55;;
44925;SDS011;30662;51.210;7.656;2023-04-01T16:37:54;4.47;;;4.07;;
44925;SDS011;30662;51.210;7.656;2023-04-01T16:45:54;3.65;;;3.35;;
44925;SDS011;30662;51.210;7.656;2023-04-01T16:48:24;4.40;;;4.00;;
44925;SDS011;30662;51.210;7.656;2023-04-01T16:51:00;4.38;;;4.07;;
44925;SDS011;30662;51.210;7.656;2023-04-01T16:56:23;4.75;;;4.35;;
44925;SDS011;30662;51.210;7.656;2023-04-01T16:59:04;4.43;;;4.13;;
44925;SDS011;30662;51.210;7.656;2023-04-01T17:04:47;4.07;;;3.78;;
44925;SDS011;30662;51.210;7.656;2023-04-01T17:18:27;4.13;;;3.83;;
44925;SDS011;30662;51.210;7.656;2023-04-01T17:21:10;4.43;;;4.03;;
44925;SDS011;30662;51.210;7.656;2023-04-01T17:26:20;3.70;;;3.40;;
44925;SDS011;30662;51.210;7.656;2023-04-01T17:35:02;3.42;;;3.13;;
44925;SDS011;30662;51.210;7.656;2023-04-01T17:40:42;3.95;;;3.45;;
44925;SDS011;30662;51.210;7.656;2023-04-01T17:43:17;3.25;;;3.00;;
44925;SDS011;30662;51.210;7.656;2023-04-01T17:48:26;4.55;;;4.15;;
44925;SDS011;30662;51.210;7.656;2023-04-01T17:51:33;4.00;;;3.60;;
44925;SDS011;30662;51.210;7.656;2023-04-01T18:00:01;3.83;;;3.53;;
44925;SDS011;30662;51.210;7.656;2023-04-01T18:08:23;5.70;;;5.20;;
44925;SDS011;30662;51.210;7.656;2023-04-01T18:11:16;3.47;;;3.17;;
44925;SDS011;30662;51.210;7.656;2023-04-01T18:13:52;4.13;;;3.83;;
44925;SDS011;30662;51.210;7.656;2023-04-01T18:19:36;4.43;;;4.10;;
44925;SDS011;30662;51.210;7.656;2023-04-01T18:30:07;3.45;;;3.15;;
44925;SDS011;30662;51.210;7.656;2023-04-01T18:32:51;3.50;;;3.20;;
44925;SDS011;30662;51.210;7.656;2023-04-01T18:35:34;4.68;;;4.07;;
44925;SDS011;30662;51.210;7.656;2023-04-01T18:38:23;4.30;;;3.92;;
44925;SDS011;30662;51.210;7.656;2023-04-01T18:41:03;4.60;;;4.20;;
44925;SDS011;30662;51.210;7.656;2023-04-01T18:43:32;4.45;;;4.15;;
44925;SDS011;30662;51.210;7.656;2023-04-01T18:46:07;4.80;;;4.40;;
44925;SDS011;30662;51.210;7.656;2023-04-01T18:51:26;5.13;;;4.72;;
44925;SDS011;30662;51.210;7.656;2023-04-01T18:54:19;6.10;;;5.50;;
44925;SDS011;30662;51.210;7.656;2023-04-01T18:57:14;5.43;;;4.93;;
44925;SDS011;30662;51.210;7.656;2023-04-01T18:59:45;5.45;;;5.00;;
44925;SDS011;30662;51.210;7.656;2023-04-01T19:02:22;6.00;;;5.40;;
44925;SDS011;30662;51.210;7.656;2023-04-01T19:07:40;5.90;;;5.30;;
44925;SDS011;30662;51.210;7.656;2023-04-01T19:13:11;7.03;;;6.43;;
44925;SDS011;30662;51.210;7.656;2023-04-01T19:21:28;6.63;;;5.80;;
44925;SDS011;30662;51.210;7.656;2023-04-01T19:26:48;6.95;;;6.35;;
44925;SDS011;30662;51.210;7.656;2023-04-01T19:32:16;8.68;;;7.78;;
44925;SDS011;30662;51.210;7.656;2023-04-01T19:34:52;7.80;;;7.10;;
44925;SDS011;30662;51.210;7.656;2023-04-01T19:37:45;7.13;;;6.53;;
44925;SDS011;30662;51.210;7.656;2023-04-01T19:43:19;7.80;;;7.00;;
44925;SDS011;30662;51.210;7.656;2023-04-01T19:51:50;7.72;;;6.93;;
44925;SDS011;30662;51.210;7.656;2023-04-01T19:59:58;6.90;;;6.18;;
44925;SDS011;30662;51.210;7.656;2023-04-01T20:06:18;6.38;;;5.78;;
44925;SDS011;30662;51.210;7.656;2023-04-01T20:11:35;5.32;;;4.93;;
44925;SDS011;30662;51.210;7.656;2023-04-01T20:17:14;4.40;;;4.10;;
44925;SDS011;30662;51.210;7.656;2023-04-01T20:27:58;5.60;;;5.20;;
44925;SDS011;30662;51.210;7.656;2023-04-01T20:30:35;5.90;;;5.40;;
44925;SDS011;30662;51.210;7.656;2023-04-01T20:36:26;6.15;;;5.65;;
44925;SDS011;30662;51.210;7.656;2023-04-01T20:39:20;6.60;;;6.00;;
44925;SDS011;30662;51.210;7.656;2023-04-01T20:44:48;6.20;;;5.70;;
44925;SDS011;30662;51.210;7.656;2023-04-01T20:50:26;7.13;;;6.53;;
44925;SDS011;30662;51.210;7.656;2023-04-01T21:01:58;6.00;;;5.50;;
44925;SDS011;30662;51.210;7.656;2023-04-01T21:04:33;5.32;;;4.93;;
44925;SDS011;30662;51.210;7.656;2023-04-01T21:17:37;5.63;;;5.18;;
44925;SDS011;30662;51.210;7.656;2023-04-01T21:25:42;6.18;;;5.57;;
44925;SDS011;30662;51.210;7.656;2023-04-01T21:28:20;6.45;;;5.95;;
44925;SDS011;30662;51.210;7.656;2023-04-01T21:31:22;6.75;;;6.25;;
44925;SDS011;30662;51.210;7.656;2023-04-01T21:37:49;7.25;;;6.65;;
44925;SDS011;30662;51.210;7.656;2023-04-01T21:40:02;8.38;;;7.57;;
44925;SDS011;30662;51.210;7.656;2023-04-01T21:42:49;7.20;;;6.60;;
44925;SDS011;30662;51.210;7.656;2023-04-01T22:06:56;8.27;;;7.53;;
44925;SDS011;30662;51.210;7.656;2023-04-01T22:09:34;7.18;;;6.47;;
44925;SDS011;30662;51.210;7.656;2023-04-01T22:12:13;7.75;;;7.03;;
44925;SDS011;30662;51.210;7.656;2023-04-01T22:17:52;8.90;;;6.40;;
44925;SDS011;30662;51.210;7.656;2023-04-01T22:23:19;5.53;;;5.10;;
44925;SDS011;30662;51.210;7.656;2023-04-01T22:25:56;6.50;;;5.90;;
44925;SDS011;30662;51.210;7.656;2023-04-01T22:28:33;6.10;;;5.60;;
44925;SDS011;30662;51.210;7.656;2023-04-01T22:31:07;6.95;;;6.35;;
44925;SDS011;30662;51.210;7.656;2023-04-01T22:41:44;7.22;;;6.63;;
44925;SDS011;30662;51.210;7.656;2023-04-01T22:49:47;6.57;;;5.88;;
44925;SDS011;30662;51.210;7.656;2023-04-01T22:52:28;6.07;;;5.57;;
44925;SDS011;30662;51.210;7.656;2023-04-01T22:54:58;5.65;;;5.15;;
44925;SDS011;30662;51.210;7.656;2023-04-01T22:57:42;5.20;;;4.80;;
44925;SDS011;30662;51.210;7.656;2023-04-01T23:00:22;5.50;;;5.10;;
44925;SDS011;30662;51.210;7.656;2023-04-01T23:06:00;6.20;;;5.70;;
44925;SDS011;30662;51.210;7.656;2023-04-01T23:11:07;7.00;;;6.40;;
44925;SDS011;30662;51.210;7.656;2023-04-01T23:13:39;8.32;;;7.63;;
44925;SDS011;30662;51.210;7.656;2023-04-01T23:16:16;8.68;;;7.88;;
44925;SDS011;30662;51.210;7.656;2023-04-01T23:18:56;7.65;;;6.85;;
44925;SDS011;30662;51.210;7.656;2023-04-01T23:27:03;8.13;;;7.30;;
44925;SDS011;30662;51.210;7.656;2023-04-01T23:29:36;8.45;;;7.65;;
44925;SDS011;30662;51.210;7.656;2023-04-01T23:32:18;7.53;;;6.93;;
44925;SDS011;30662;51.210;7.656;2023-04-01T23:34:48;7.65;;;6.95;;
44925;SDS011;30662;51.210;7.656;2023-04-01T23:37:17;8.43;;;7.40;;
44925;SDS011;30662;51.210;7.656;2023-04-01T23:39:45;8.43;;;7.65;;
44925;SDS011;30662;51.210;7.656;2023-04-01T23:44:46;9.40;;;8.52;;
44925;SDS011;30662;51.210;7.656;2023-04-01T23:47:16;8.93;;;8.13;;
44925;SDS011;30662;51.210;7.656;2023-04-01T23:49:51;9.05;;;7.43;;
44925;SDS011;30662;51.210;7.656;2023-04-01T23:52:22;9.18;;;8.35;;
44925;SDS011;30662;51.210;7.656;2023-04-01T23:54:55;8.50;;;7.70;;
44925;SDS011;30662;51.210;7.656;2023-04-01T23:57:34;8.88;;;8.07;;
